sensor_id;sensor_type;location;lat;lon;timestamp;temperature;humidity
43651;DHT22;29247;50.944;5.382;2023-06-10T00:00:05;23.30;55.80
43651;DHT22;29247;50.944;5.382;2023-06-10T00:02:32;23.20;56.00
43651;DHT22;29247;50.944;5.382;2023-06-10T00:05:00;23.20;56.20
43651;DHT22;29247;50.944;5.382;2023-06-10T00:07:26;23.20;56.30
43651;DHT22;29247;50.944;5.382;2023-06-10T00:09:51;23.20;56.40
43651;DHT22;29247;50.944;5.382;2023-06-10T00:12:20;23.10;56.40
43651;DHT22;29247;50.944;5.382;2023-06-10T00:14:46;23.10;56.60
43651;DHT22;29247;50.944;5.382;2023-06-10T00:17:15;23.10;56.90
43651;DHT22;29247;50.944;5.382;2023-06-10T00:19:41;23.10;57.10
43651;DHT22;29247;50.944;5.382;2023-06-10T00:22:07;23.10;57.20
43651;DHT22;29247;50.944;5.382;2023-06-10T00:24:34;23.10;57.20
43651;DHT22;29247;50.944;5.382;2023-06-10T00:27:00;23.10;57.40
43651;DHT22;29247;50.944;5.382;2023-06-10T00:29:26;23.00;57.40
43651;DHT22;29247;50.944;5.382;2023-06-10T00:31:52;23.00;57.40
43651;DHT22;29247;50.944;5.382;2023-06-10T00:34:19;23.00;57.60
43651;DHT22;29247;50.944;5.382;2023-06-10T00:36:44;23.00;57.70
43651;DHT22;29247;50.944;5.382;2023-06-10T00:39:10;23.00;57.70
43651;DHT22;29247;50.944;5.382;2023-06-10T00:41:36;22.90;57.70
43651;DHT22;29247;50.944;5.382;2023-06-10T00:44:02;22.90;57.80
43651;DHT22;29247;50.944;5.382;2023-06-10T00:46:30;22.90;57.90
43651;DHT22;29247;50.944;5.382;2023-06-10T00:49:00;22.80;58.00
43651;DHT22;29247;50.944;5.382;2023-06-10T00:51:29;22.80;58.10
43651;DHT22;29247;50.944;5.382;2023-06-10T00:53:55;22.80;58.10
43651;DHT22;29247;50.944;5.382;2023-06-10T00:56:22;22.80;58.10
43651;DHT22;29247;50.944;5.382;2023-06-10T00:58:48;22.80;58.20
43651;DHT22;29247;50.944;5.382;2023-06-10T01:01:13;22.70;58.20
43651;DHT22;29247;50.944;5.382;2023-06-10T01:03:39;22.70;58.30
43651;DHT22;29247;50.944;5.382;2023-06-10T01:06:18;22.70;58.50
43651;DHT22;29247;50.944;5.382;2023-06-10T01:09:00;22.70;58.60
43651;DHT22;29247;50.944;5.382;2023-06-10T01:11:55;22.60;58.70
43651;DHT22;29247;50.944;5.382;2023-06-10T01:14:26;22.60;58.80
43651;DHT22;29247;50.944;5.382;2023-06-10T01:16:55;22.60;58.90
43651;DHT22;29247;50.944;5.382;2023-06-10T01:19:23;22.60;59.00
43651;DHT22;29247;50.944;5.382;2023-06-10T01:21:50;22.60;59.10
43651;DHT22;29247;50.944;5.382;2023-06-10T01:24:19;22.60;59.20
43651;DHT22;29247;50.944;5.382;2023-06-10T01:26:48;22.50;59.30
43651;DHT22;29247;50.944;5.382;2023-06-10T01:29:20;22.50;59.40
43651;DHT22;29247;50.944;5.382;2023-06-10T01:32:01;22.50;59.50
43651;DHT22;29247;50.944;5.382;2023-06-10T01:34:33;22.50;59.60
43651;DHT22;29247;50.944;5.382;2023-06-10T01:37:02;22.50;59.70
43651;DHT22;29247;50.944;5.382;2023-06-10T01:39:29;22.40;59.70
43651;DHT22;29247;50.944;5.382;2023-06-10T01:41:59;22.40;59.80
43651;DHT22;29247;50.944;5.382;2023-06-10T01:44:30;22.40;59.90
43651;DHT22;29247;50.944;5.382;2023-06-10T01:46:58;22.40;60.00
43651;DHT22;29247;50.944;5.382;2023-06-10T01:49:25;22.30;60.10
43651;DHT22;29247;50.944;5.382;2023-06-10T01:51:52;22.40;60.10
43651;DHT22;29247;50.944;5.382;2023-06-10T01:54:20;22.30;60.10
43651;DHT22;29247;50.944;5.382;2023-06-10T01:56:48;22.30;60.40
43651;DHT22;29247;50.944;5.382;2023-06-10T01:59:16;22.30;60.60
43651;DHT22;29247;50.944;5.382;2023-06-10T02:01:41;22.20;60.70
43651;DHT22;29247;50.944;5.382;2023-06-10T02:04:10;22.20;60.80
43651;DHT22;29247;50.944;5.382;2023-06-10T02:06:35;22.20;60.90
43651;DHT22;29247;50.944;5.382;2023-06-10T02:09:03;22.20;61.00
43651;DHT22;29247;50.944;5.382;2023-06-10T02:11:31;22.20;61.00
43651;DHT22;29247;50.944;5.382;2023-06-10T02:13:57;22.20;61.00
43651;DHT22;29247;50.944;5.382;2023-06-10T02:16:25;22.20;61.00
43651;DHT22;29247;50.944;5.382;2023-06-10T02:18:54;22.10;61.20
43651;DHT22;29247;50.944;5.382;2023-06-10T02:21:22;22.10;61.40
43651;DHT22;29247;50.944;5.382;2023-06-10T02:23:50;22.00;61.40
43651;DHT22;29247;50.944;5.382;2023-06-10T02:26:15;22.10;61.40
43651;DHT22;29247;50.944;5.382;2023-06-10T02:28:44;22.00;61.50
43651;DHT22;29247;50.944;5.382;2023-06-10T02:31:13;21.90;61.70
43651;DHT22;29247;50.944;5.382;2023-06-10T02:33:38;21.90;62.00
43651;DHT22;29247;50.944;5.382;2023-06-10T02:36:06;21.90;62.10
43651;DHT22;29247;50.944;5.382;2023-06-10T02:38:34;21.90;62.30
43651;DHT22;29247;50.944;5.382;2023-06-10T02:41:04;21.90;62.40
43651;DHT22;29247;50.944;5.382;2023-06-10T02:43:35;21.80;62.40
43651;DHT22;29247;50.944;5.382;2023-06-10T02:46:03;21.90;62.50
43651;DHT22;29247;50.944;5.382;2023-06-10T02:48:28;21.80;62.60
43651;DHT22;29247;50.944;5.382;2023-06-10T02:50:54;21.80;62.80
43651;DHT22;29247;50.944;5.382;2023-06-10T02:53:21;21.70;62.70
43651;DHT22;29247;50.944;5.382;2023-06-10T02:55:49;21.70;62.80
43651;DHT22;29247;50.944;5.382;2023-06-10T02:58:15;21.70;62.90
43651;DHT22;29247;50.944;5.382;2023-06-10T03:00:43;21.70;63.00
43651;DHT22;29247;50.944;5.382;2023-06-10T03:03:10;21.70;63.10
43651;DHT22;29247;50.944;5.382;2023-06-10T03:05:36;21.70;63.10
43651;DHT22;29247;50.944;5.382;2023-06-10T03:08:04;21.70;63.30
43651;DHT22;29247;50.944;5.382;2023-06-10T03:10:31;21.60;64.20
43651;DHT22;29247;50.944;5.382;2023-06-10T03:12:58;21.60;63.60
43651;DHT22;29247;50.944;5.382;2023-06-10T03:15:24;21.60;63.70
43651;DHT22;29247;50.944;5.382;2023-06-10T03:17:50;21.60;63.90
43651;DHT22;29247;50.944;5.382;2023-06-10T03:20:16;21.50;63.80
43651;DHT22;29247;50.944;5.382;2023-06-10T03:22:46;21.50;64.00
43651;DHT22;29247;50.944;5.382;2023-06-10T03:25:11;21.50;64.00
43651;DHT22;29247;50.944;5.382;2023-06-10T03:27:42;21.50;64.10
43651;DHT22;29247;50.944;5.382;2023-06-10T03:30:09;21.50;64.20
43651;DHT22;29247;50.944;5.382;2023-06-10T03:32:35;21.50;64.40
43651;DHT22;29247;50.944;5.382;2023-06-10T03:35:04;21.40;64.40
43651;DHT22;29247;50.944;5.382;2023-06-10T03:37:33;21.40;64.50
43651;DHT22;29247;50.944;5.382;2023-06-10T03:40:01;21.40;64.70
43651;DHT22;29247;50.944;5.382;2023-06-10T03:42:27;21.40;64.50
43651;DHT22;29247;50.944;5.382;2023-06-10T03:44:55;21.40;64.70
43651;DHT22;29247;50.944;5.382;2023-06-10T03:47:22;21.40;64.90
43651;DHT22;29247;50.944;5.382;2023-06-10T03:49:50;21.40;64.90
43651;DHT22;29247;50.944;5.382;2023-06-10T03:52:19;21.30;64.90
43651;DHT22;29247;50.944;5.382;2023-06-10T03:54:45;21.30;65.20
43651;DHT22;29247;50.944;5.382;2023-06-10T03:57:10;21.30;65.30
43651;DHT22;29247;50.944;5.382;2023-06-10T03:59:36;21.30;65.40
43651;DHT22;29247;50.944;5.382;2023-06-10T04:02:07;21.30;65.60
43651;DHT22;29247;50.944;5.382;2023-06-10T04:04:34;21.30;65.80
43651;DHT22;29247;50.944;5.382;2023-06-10T04:07:00;21.30;65.80
43651;DHT22;29247;50.944;5.382;2023-06-10T04:09:25;21.30;65.90
43651;DHT22;29247;50.944;5.382;2023-06-10T04:11:56;21.30;65.90
43651;DHT22;29247;50.944;5.382;2023-06-10T04:14:22;21.30;66.00
43651;DHT22;29247;50.944;5.382;2023-06-10T04:16:50;21.30;66.10
43651;DHT22;29247;50.944;5.382;2023-06-10T04:19:15;21.30;66.30
43651;DHT22;29247;50.944;5.382;2023-06-10T04:21:42;21.30;66.30
43651;DHT22;29247;50.944;5.382;2023-06-10T04:24:08;21.30;66.50
43651;DHT22;29247;50.944;5.382;2023-06-10T04:26:36;21.30;66.60
43651;DHT22;29247;50.944;5.382;2023-06-10T04:29:02;21.30;66.70
43651;DHT22;29247;50.944;5.382;2023-06-10T04:31:27;21.30;66.80
43651;DHT22;29247;50.944;5.382;2023-06-10T04:33:57;21.30;67.00
43651;DHT22;29247;50.944;5.382;2023-06-10T04:36:23;21.30;67.00
43651;DHT22;29247;50.944;5.382;2023-06-10T04:42:12;21.30;67.20
43651;DHT22;29247;50.944;5.382;2023-06-10T04:44:38;21.30;67.20
43651;DHT22;29247;50.944;5.382;2023-06-10T04:47:04;21.30;67.40
43651;DHT22;29247;50.944;5.382;2023-06-10T04:49:30;21.30;67.50
43651;DHT22;29247;50.944;5.382;2023-06-10T04:52:03;21.30;67.60
43651;DHT22;29247;50.944;5.382;2023-06-10T04:54:32;21.30;67.70
43651;DHT22;29247;50.944;5.382;2023-06-10T04:56:58;21.30;67.90
43651;DHT22;29247;50.944;5.382;2023-06-10T04:59:23;21.40;68.00
43651;DHT22;29247;50.944;5.382;2023-06-10T05:01:49;21.40;68.10
43651;DHT22;29247;50.944;5.382;2023-06-10T05:04:15;21.40;68.10
43651;DHT22;29247;50.944;5.382;2023-06-10T05:06:40;21.40;68.20
43651;DHT22;29247;50.944;5.382;2023-06-10T05:09:06;21.40;68.30
43651;DHT22;29247;50.944;5.382;2023-06-10T05:11:34;21.50;68.50
43651;DHT22;29247;50.944;5.382;2023-06-10T05:14:02;21.50;68.50
43651;DHT22;29247;50.944;5.382;2023-06-10T05:16:30;21.50;68.50
43651;DHT22;29247;50.944;5.382;2023-06-10T05:18:58;21.50;68.60
43651;DHT22;29247;50.944;5.382;2023-06-10T05:21:23;21.50;68.60
43651;DHT22;29247;50.944;5.382;2023-06-10T05:23:49;21.50;68.60
43651;DHT22;29247;50.944;5.382;2023-06-10T05:26:17;21.60;68.70
43651;DHT22;29247;50.944;5.382;2023-06-10T05:28:45;21.60;68.80
43651;DHT22;29247;50.944;5.382;2023-06-10T05:34:29;21.60;68.80
43651;DHT22;29247;50.944;5.382;2023-06-10T05:36:55;21.70;68.70
43651;DHT22;29247;50.944;5.382;2023-06-10T05:39:35;21.70;68.80
43651;DHT22;29247;50.944;5.382;2023-06-10T05:42:04;21.70;68.80
43651;DHT22;29247;50.944;5.382;2023-06-10T05:44:32;21.70;68.70
43651;DHT22;29247;50.944;5.382;2023-06-10T05:47:02;21.80;69.60
43651;DHT22;29247;50.944;5.382;2023-06-10T05:49:28;21.80;68.70
43651;DHT22;29247;50.944;5.382;2023-06-10T05:51:54;21.90;68.70
43651;DHT22;29247;50.944;5.382;2023-06-10T05:54:21;21.90;68.70
43651;DHT22;29247;50.944;5.382;2023-06-10T05:56:49;21.90;68.70
43651;DHT22;29247;50.944;5.382;2023-06-10T05:59:17;21.90;68.70
43651;DHT22;29247;50.944;5.382;2023-06-10T06:01:43;22.00;68.70
43651;DHT22;29247;50.944;5.382;2023-06-10T06:04:11;22.00;68.60
43651;DHT22;29247;50.944;5.382;2023-06-10T06:06:38;22.10;68.70
43651;DHT22;29247;50.944;5.382;2023-06-10T06:09:05;22.20;68.80
43651;DHT22;29247;50.944;5.382;2023-06-10T06:11:34;22.20;68.70
43651;DHT22;29247;50.944;5.382;2023-06-10T06:14:00;22.20;68.50
43651;DHT22;29247;50.944;5.382;2023-06-10T06:16:28;22.30;68.50
43651;DHT22;29247;50.944;5.382;2023-06-10T06:18:54;22.30;68.60
43651;DHT22;29247;50.944;5.382;2023-06-10T06:21:20;22.40;68.50
43651;DHT22;29247;50.944;5.382;2023-06-10T06:23:48;22.50;68.40
43651;DHT22;29247;50.944;5.382;2023-06-10T06:26:14;22.60;68.30
43651;DHT22;29247;50.944;5.382;2023-06-10T06:28:40;22.60;68.00
43651;DHT22;29247;50.944;5.382;2023-06-10T06:31:06;22.70;67.80
43651;DHT22;29247;50.944;5.382;2023-06-10T06:33:32;22.80;67.50
43651;DHT22;29247;50.944;5.382;2023-06-10T06:35:58;23.00;67.40
43651;DHT22;29247;50.944;5.382;2023-06-10T06:38:28;23.10;67.10
43651;DHT22;29247;50.944;5.382;2023-06-10T06:40:54;23.20;66.50
43651;DHT22;29247;50.944;5.382;2023-06-10T06:43:21;23.30;66.30
43651;DHT22;29247;50.944;5.382;2023-06-10T06:45:47;23.30;65.90
43651;DHT22;29247;50.944;5.382;2023-06-10T06:48:13;23.50;65.60
43651;DHT22;29247;50.944;5.382;2023-06-10T06:50:38;23.50;65.80
43651;DHT22;29247;50.944;5.382;2023-06-10T06:53:07;23.90;65.90
43651;DHT22;29247;50.944;5.382;2023-06-10T06:55:32;24.50;65.90
43651;DHT22;29247;50.944;5.382;2023-06-10T06:57:58;25.20;64.10
43651;DHT22;29247;50.944;5.382;2023-06-10T07:00:26;25.90;61.00
43651;DHT22;29247;50.944;5.382;2023-06-10T07:02:52;26.70;59.90
43651;DHT22;29247;50.944;5.382;2023-06-10T07:05:20;27.40;58.20
43651;DHT22;29247;50.944;5.382;2023-06-10T07:07:46;28.10;56.50
43651;DHT22;29247;50.944;5.382;2023-06-10T07:10:11;28.70;54.60
43651;DHT22;29247;50.944;5.382;2023-06-10T07:12:37;29.30;53.10
43651;DHT22;29247;50.944;5.382;2023-06-10T07:15:05;29.70;50.80
43651;DHT22;29247;50.944;5.382;2023-06-10T07:17:31;30.10;48.60
43651;DHT22;29247;50.944;5.382;2023-06-10T07:19:57;30.40;47.90
43651;DHT22;29247;50.944;5.382;2023-06-10T07:22:25;30.70;47.60
43651;DHT22;29247;50.944;5.382;2023-06-10T07:24:50;30.90;47.10
43651;DHT22;29247;50.944;5.382;2023-06-10T07:27:17;31.00;46.60
43651;DHT22;29247;50.944;5.382;2023-06-10T07:29:43;31.00;46.30
43651;DHT22;29247;50.944;5.382;2023-06-10T07:32:08;30.80;45.80
43651;DHT22;29247;50.944;5.382;2023-06-10T07:34:34;30.70;45.90
43651;DHT22;29247;50.944;5.382;2023-06-10T07:37:00;30.40;46.00
43651;DHT22;29247;50.944;5.382;2023-06-10T07:39:25;30.10;45.90
43651;DHT22;29247;50.944;5.382;2023-06-10T07:41:51;29.90;46.50
43651;DHT22;29247;50.944;5.382;2023-06-10T07:44:19;29.70;46.00
43651;DHT22;29247;50.944;5.382;2023-06-10T07:46:45;29.60;46.30
43651;DHT22;29247;50.944;5.382;2023-06-10T07:49:10;29.40;46.80
43651;DHT22;29247;50.944;5.382;2023-06-10T07:51:38;29.40;47.00
43651;DHT22;29247;50.944;5.382;2023-06-10T07:54:04;29.30;47.30
43651;DHT22;29247;50.944;5.382;2023-06-10T07:56:29;29.10;47.50
43651;DHT22;29247;50.944;5.382;2023-06-10T07:58:58;29.00;47.90
43651;DHT22;29247;50.944;5.382;2023-06-10T08:01:28;29.00;48.30
43651;DHT22;29247;50.944;5.382;2023-06-10T08:03:55;28.90;48.40
43651;DHT22;29247;50.944;5.382;2023-06-10T08:06:21;28.80;48.60
43651;DHT22;29247;50.944;5.382;2023-06-10T08:08:47;28.80;48.80
43651;DHT22;29247;50.944;5.382;2023-06-10T08:11:13;28.80;49.00
43651;DHT22;29247;50.944;5.382;2023-06-10T08:13:39;28.80;48.70
43651;DHT22;29247;50.944;5.382;2023-06-10T08:19:33;28.70;48.90
43651;DHT22;29247;50.944;5.382;2023-06-10T08:21:59;28.70;48.80
43651;DHT22;29247;50.944;5.382;2023-06-10T08:24:26;28.60;49.10
43651;DHT22;29247;50.944;5.382;2023-06-10T08:26:57;28.60;48.30
43651;DHT22;29247;50.944;5.382;2023-06-10T08:29:25;28.60;49.10
43651;DHT22;29247;50.944;5.382;2023-06-10T08:31:51;28.60;49.00
43651;DHT22;29247;50.944;5.382;2023-06-10T08:34:19;28.60;49.00
43651;DHT22;29247;50.944;5.382;2023-06-10T08:36:45;28.60;49.30
43651;DHT22;29247;50.944;5.382;2023-06-10T08:39:10;28.70;49.90
43651;DHT22;29247;50.944;5.382;2023-06-10T08:41:42;28.70;49.40
43651;DHT22;29247;50.944;5.382;2023-06-10T08:44:10;28.60;49.50
43651;DHT22;29247;50.944;5.382;2023-06-10T08:46:38;28.70;49.80
43651;DHT22;29247;50.944;5.382;2023-06-10T08:49:05;28.70;50.00
43651;DHT22;29247;50.944;5.382;2023-06-10T08:51:35;28.70;49.80
43651;DHT22;29247;50.944;5.382;2023-06-10T08:54:11;28.70;49.70
43651;DHT22;29247;50.944;5.382;2023-06-10T08:56:39;28.70;48.80
43651;DHT22;29247;50.944;5.382;2023-06-10T08:59:06;28.70;49.20
43651;DHT22;29247;50.944;5.382;2023-06-10T09:01:37;28.80;49.60
43651;DHT22;29247;50.944;5.382;2023-06-10T09:04:03;28.80;49.30
43651;DHT22;29247;50.944;5.382;2023-06-10T09:06:32;28.80;49.30
43651;DHT22;29247;50.944;5.382;2023-06-10T09:08:59;28.90;49.00
43651;DHT22;29247;50.944;5.382;2023-06-10T09:11:25;28.90;49.00
43651;DHT22;29247;50.944;5.382;2023-06-10T09:13:55;28.90;48.30
43651;DHT22;29247;50.944;5.382;2023-06-10T09:16:23;28.90;48.40
43651;DHT22;29247;50.944;5.382;2023-06-10T09:18:49;29.00;48.70
43651;DHT22;29247;50.944;5.382;2023-06-10T09:21:23;29.00;48.40
43651;DHT22;29247;50.944;5.382;2023-06-10T09:23:54;29.00;48.60
43651;DHT22;29247;50.944;5.382;2023-06-10T09:26:30;29.10;48.40
43651;DHT22;29247;50.944;5.382;2023-06-10T09:29:06;29.00;47.70
43651;DHT22;29247;50.944;5.382;2023-06-10T09:31:40;29.00;46.90
43651;DHT22;29247;50.944;5.382;2023-06-10T09:34:09;29.10;47.60
43651;DHT22;29247;50.944;5.382;2023-06-10T09:36:36;29.10;48.10
43651;DHT22;29247;50.944;5.382;2023-06-10T09:39:13;29.10;47.10
43651;DHT22;29247;50.944;5.382;2023-06-10T09:41:41;29.20;47.20
43651;DHT22;29247;50.944;5.382;2023-06-10T09:44:15;29.20;47.60
43651;DHT22;29247;50.944;5.382;2023-06-10T09:46:42;29.30;47.60
43651;DHT22;29247;50.944;5.382;2023-06-10T09:49:08;29.30;46.80
43651;DHT22;29247;50.944;5.382;2023-06-10T09:51:34;29.30;46.30
43651;DHT22;29247;50.944;5.382;2023-06-10T09:54:04;29.30;45.80
43651;DHT22;29247;50.944;5.382;2023-06-10T09:56:35;29.30;46.00
43651;DHT22;29247;50.944;5.382;2023-06-10T09:59:10;29.30;45.90
43651;DHT22;29247;50.944;5.382;2023-06-10T10:01:36;29.30;45.10
43651;DHT22;29247;50.944;5.382;2023-06-10T10:04:03;29.30;45.50
43651;DHT22;29247;50.944;5.382;2023-06-10T10:06:31;29.40;45.50
43651;DHT22;29247;50.944;5.382;2023-06-10T10:08:57;29.40;44.90
43651;DHT22;29247;50.944;5.382;2023-06-10T10:11:23;29.40;46.00
43651;DHT22;29247;50.944;5.382;2023-06-10T10:13:54;29.50;45.20
43651;DHT22;29247;50.944;5.382;2023-06-10T10:16:22;29.50;44.20
43651;DHT22;29247;50.944;5.382;2023-06-10T10:18:55;29.50;44.90
43651;DHT22;29247;50.944;5.382;2023-06-10T10:21:27;29.50;44.10
43651;DHT22;29247;50.944;5.382;2023-06-10T10:24:00;29.50;43.30
43651;DHT22;29247;50.944;5.382;2023-06-10T10:26:29;29.50;43.10
43651;DHT22;29247;50.944;5.382;2023-06-10T10:31:50;29.50;44.10
43651;DHT22;29247;50.944;5.382;2023-06-10T10:34:38;29.60;43.70
43651;DHT22;29247;50.944;5.382;2023-06-10T10:37:07;29.60;43.90
43651;DHT22;29247;50.944;5.382;2023-06-10T10:39:36;29.70;43.60
43651;DHT22;29247;50.944;5.382;2023-06-10T10:42:03;29.70;43.80
43651;DHT22;29247;50.944;5.382;2023-06-10T10:44:33;29.70;44.50
43651;DHT22;29247;50.944;5.382;2023-06-10T10:47:03;29.70;43.70
43651;DHT22;29247;50.944;5.382;2023-06-10T10:49:30;29.70;43.30
43651;DHT22;29247;50.944;5.382;2023-06-10T10:52:00;29.80;42.80
43651;DHT22;29247;50.944;5.382;2023-06-10T10:54:34;29.80;42.70
43651;DHT22;29247;50.944;5.382;2023-06-10T10:57:10;29.80;43.00
43651;DHT22;29247;50.944;5.382;2023-06-10T10:59:57;29.80;42.30
43651;DHT22;29247;50.944;5.382;2023-06-10T11:02:35;29.90;43.20
43651;DHT22;29247;50.944;5.382;2023-06-10T11:05:04;29.90;42.80
43651;DHT22;29247;50.944;5.382;2023-06-10T11:07:34;29.90;43.10
43651;DHT22;29247;50.944;5.382;2023-06-10T11:10:10;29.90;41.90
43651;DHT22;29247;50.944;5.382;2023-06-10T11:15:13;29.90;41.10
43651;DHT22;29247;50.944;5.382;2023-06-10T11:21:11;29.90;41.50
43651;DHT22;29247;50.944;5.382;2023-06-10T11:23:32;30.00;42.00
43651;DHT22;29247;50.944;5.382;2023-06-10T11:28:39;30.00;40.60
43651;DHT22;29247;50.944;5.382;2023-06-10T11:31:05;30.00;40.20
43651;DHT22;29247;50.944;5.382;2023-06-10T11:33:31;30.00;39.70
43651;DHT22;29247;50.944;5.382;2023-06-10T11:36:00;30.00;40.00
43651;DHT22;29247;50.944;5.382;2023-06-10T11:38:28;30.00;40.60
43651;DHT22;29247;50.944;5.382;2023-06-10T11:40:57;30.00;40.70
43651;DHT22;29247;50.944;5.382;2023-06-10T11:43:25;30.00;42.20
43651;DHT22;29247;50.944;5.382;2023-06-10T11:45:54;30.00;41.00
43651;DHT22;29247;50.944;5.382;2023-06-10T11:48:21;30.00;40.20
43651;DHT22;29247;50.944;5.382;2023-06-10T11:50:49;30.00;40.00
43651;DHT22;29247;50.944;5.382;2023-06-10T11:53:17;30.10;40.20
43651;DHT22;29247;50.944;5.382;2023-06-10T11:55:46;30.10;40.60
43651;DHT22;29247;50.944;5.382;2023-06-10T11:58:22;30.30;39.00
43651;DHT22;29247;50.944;5.382;2023-06-10T12:00:50;30.20;38.60
43651;DHT22;29247;50.944;5.382;2023-06-10T12:03:17;30.20;37.10
43651;DHT22;29247;50.944;5.382;2023-06-10T12:06:02;30.20;37.90
43651;DHT22;29247;50.944;5.382;2023-06-10T12:08:34;30.30;37.90
43651;DHT22;29247;50.944;5.382;2023-06-10T12:11:06;30.30;38.30
43651;DHT22;29247;50.944;5.382;2023-06-10T12:13:34;30.40;37.60
43651;DHT22;29247;50.944;5.382;2023-06-10T12:16:07;30.40;37.20
43651;DHT22;29247;50.944;5.382;2023-06-10T12:18:34;30.40;37.90
43651;DHT22;29247;50.944;5.382;2023-06-10T12:21:00;30.40;37.20
43651;DHT22;29247;50.944;5.382;2023-06-10T12:23:26;30.40;37.90
43651;DHT22;29247;50.944;5.382;2023-06-10T12:25:57;30.50;38.10
43651;DHT22;29247;50.944;5.382;2023-06-10T12:28:27;30.50;38.20
43651;DHT22;29247;50.944;5.382;2023-06-10T12:31:06;30.60;38.20
43651;DHT22;29247;50.944;5.382;2023-06-10T12:33:33;30.60;37.50
43651;DHT22;29247;50.944;5.382;2023-06-10T12:35:58;30.60;36.20
43651;DHT22;29247;50.944;5.382;2023-06-10T12:38:26;30.60;36.40
43651;DHT22;29247;50.944;5.382;2023-06-10T12:41:01;30.50;35.90
43651;DHT22;29247;50.944;5.382;2023-06-10T12:43:31;30.60;36.50
43651;DHT22;29247;50.944;5.382;2023-06-10T12:46:09;30.60;37.00
43651;DHT22;29247;50.944;5.382;2023-06-10T12:48:35;30.70;37.40
43651;DHT22;29247;50.944;5.382;2023-06-10T12:51:03;30.70;37.30
43651;DHT22;29247;50.944;5.382;2023-06-10T12:53:31;30.70;37.70
43651;DHT22;29247;50.944;5.382;2023-06-10T12:55:57;30.80;37.80
43651;DHT22;29247;50.944;5.382;2023-06-10T12:58:25;30.80;37.00
43651;DHT22;29247;50.944;5.382;2023-06-10T13:00:52;30.80;37.00
43651;DHT22;29247;50.944;5.382;2023-06-10T13:03:23;30.80;35.90
43651;DHT22;29247;50.944;5.382;2023-06-10T13:05:53;30.80;35.30
43651;DHT22;29247;50.944;5.382;2023-06-10T13:08:22;30.80;34.90
43651;DHT22;29247;50.944;5.382;2023-06-10T13:10:47;30.80;35.20
43651;DHT22;29247;50.944;5.382;2023-06-10T13:13:15;30.90;35.90
43651;DHT22;29247;50.944;5.382;2023-06-10T13:15:41;30.90;35.60
43651;DHT22;29247;50.944;5.382;2023-06-10T13:18:07;30.90;35.70
43651;DHT22;29247;50.944;5.382;2023-06-10T13:20:33;31.00;35.40
43651;DHT22;29247;50.944;5.382;2023-06-10T13:23:01;31.00;34.70
43651;DHT22;29247;50.944;5.382;2023-06-10T13:25:29;31.00;34.50
43651;DHT22;29247;50.944;5.382;2023-06-10T13:27:55;31.10;34.60
43651;DHT22;29247;50.944;5.382;2023-06-10T13:30:23;31.10;34.20
43651;DHT22;29247;50.944;5.382;2023-06-10T13:32:54;31.10;34.30
43651;DHT22;29247;50.944;5.382;2023-06-10T13:35:22;31.10;34.40
43651;DHT22;29247;50.944;5.382;2023-06-10T13:37:47;31.10;34.60
43651;DHT22;29247;50.944;5.382;2023-06-10T13:40:13;31.10;34.80
43651;DHT22;29247;50.944;5.382;2023-06-10T13:42:39;31.20;34.50
43651;DHT22;29247;50.944;5.382;2023-06-10T13:45:05;31.20;34.00
43651;DHT22;29247;50.944;5.382;2023-06-10T13:47:31;31.20;34.20
43651;DHT22;29247;50.944;5.382;2023-06-10T13:49:57;31.20;34.50
43651;DHT22;29247;50.944;5.382;2023-06-10T13:52:24;31.20;35.20
43651;DHT22;29247;50.944;5.382;2023-06-10T13:54:50;31.20;35.00
43651;DHT22;29247;50.944;5.382;2023-06-10T13:57:21;31.20;34.90
43651;DHT22;29247;50.944;5.382;2023-06-10T13:59:49;31.30;35.10
43651;DHT22;29247;50.944;5.382;2023-06-10T14:02:14;31.20;35.00
43651;DHT22;29247;50.944;5.382;2023-06-10T14:04:45;31.30;34.90
43651;DHT22;29247;50.944;5.382;2023-06-10T14:07:10;31.20;35.40
43651;DHT22;29247;50.944;5.382;2023-06-10T14:09:38;31.30;35.80
43651;DHT22;29247;50.944;5.382;2023-06-10T14:12:04;31.30;36.20
43651;DHT22;29247;50.944;5.382;2023-06-10T14:14:30;31.30;35.50
43651;DHT22;29247;50.944;5.382;2023-06-10T14:16:59;31.30;34.40
43651;DHT22;29247;50.944;5.382;2023-06-10T14:19:25;31.30;34.60
43651;DHT22;29247;50.944;5.382;2023-06-10T14:21:51;31.30;34.00
43651;DHT22;29247;50.944;5.382;2023-06-10T14:24:18;31.30;33.60
43651;DHT22;29247;50.944;5.382;2023-06-10T14:26:44;31.30;33.70
43651;DHT22;29247;50.944;5.382;2023-06-10T14:29:09;31.30;33.90
43651;DHT22;29247;50.944;5.382;2023-06-10T14:31:35;31.30;33.50
43651;DHT22;29247;50.944;5.382;2023-06-10T14:34:01;31.30;34.50
43651;DHT22;29247;50.944;5.382;2023-06-10T14:36:26;31.30;34.40
43651;DHT22;29247;50.944;5.382;2023-06-10T14:38:52;31.30;33.80
43651;DHT22;29247;50.944;5.382;2023-06-10T14:41:19;31.20;33.50
43651;DHT22;29247;50.944;5.382;2023-06-10T14:43:47;31.20;33.30
43651;DHT22;29247;50.944;5.382;2023-06-10T14:46:15;31.20;33.60
43651;DHT22;29247;50.944;5.382;2023-06-10T14:48:43;31.20;34.20
43651;DHT22;29247;50.944;5.382;2023-06-10T14:51:09;31.20;33.10
43651;DHT22;29247;50.944;5.382;2023-06-10T14:53:35;31.20;33.70
43651;DHT22;29247;50.944;5.382;2023-06-10T14:56:00;31.20;34.20
43651;DHT22;29247;50.944;5.382;2023-06-10T14:58:26;31.30;34.80
43651;DHT22;29247;50.944;5.382;2023-06-10T15:00:52;31.30;35.60
43651;DHT22;29247;50.944;5.382;2023-06-10T15:03:20;31.40;35.60
43651;DHT22;29247;50.944;5.382;2023-06-10T15:05:46;31.40;36.70
43651;DHT22;29247;50.944;5.382;2023-06-10T15:08:14;31.40;36.90
43651;DHT22;29247;50.944;5.382;2023-06-10T15:10:43;31.40;37.70
43651;DHT22;29247;50.944;5.382;2023-06-10T15:13:09;31.40;36.60
43651;DHT22;29247;50.944;5.382;2023-06-10T15:15:35;31.40;36.70
43651;DHT22;29247;50.944;5.382;2023-06-10T15:18:00;31.30;36.70
43651;DHT22;29247;50.944;5.382;2023-06-10T15:20:26;31.30;36.80
43651;DHT22;29247;50.944;5.382;2023-06-10T15:22:52;31.10;36.70
43651;DHT22;29247;50.944;5.382;2023-06-10T15:25:19;31.10;37.00
43651;DHT22;29247;50.944;5.382;2023-06-10T15:27:44;31.00;36.80
43651;DHT22;29247;50.944;5.382;2023-06-10T15:30:10;31.00;35.80
43651;DHT22;29247;50.944;5.382;2023-06-10T15:32:38;31.00;36.00
43651;DHT22;29247;50.944;5.382;2023-06-10T15:35:06;31.00;36.50
43651;DHT22;29247;50.944;5.382;2023-06-10T15:37:34;31.00;37.00
43651;DHT22;29247;50.944;5.382;2023-06-10T15:40:00;31.00;37.10
43651;DHT22;29247;50.944;5.382;2023-06-10T15:42:29;31.00;37.00
43651;DHT22;29247;50.944;5.382;2023-06-10T15:44:57;31.00;36.90
43651;DHT22;29247;50.944;5.382;2023-06-10T15:47:22;31.00;36.90
43651;DHT22;29247;50.944;5.382;2023-06-10T15:49:50;31.00;36.70
43651;DHT22;29247;50.944;5.382;2023-06-10T15:52:16;31.00;36.10
43651;DHT22;29247;50.944;5.382;2023-06-10T15:54:42;31.00;36.40